createdAt,value
2023-02-21T00:01:19.094Z,66.24
2023-02-21T00:06:38.982Z,66.07
2023-02-21T00:12:02.265Z,67.15
2023-02-21T00:17:22.303Z,67.70
2023-02-21T00:22:41.946Z,67.35
2023-02-21T00:28:02.088Z,66.73
2023-02-21T00:33:22.205Z,67.13
2023-02-21T00:38:42.048Z,66.56
2023-02-21T00:44:01.947Z,65.77
2023-02-21T00:49:22.115Z,66.75
2023-02-21T00:54:42.162Z,66.36
2023-02-21T01:00:02.261Z,66.75
2023-02-21T01:05:22.851Z,66.99
2023-02-21T01:10:42.672Z,67.25
2023-02-21T01:16:02.753Z,68.46
2023-02-21T01:21:22.887Z,68.28
2023-02-21T01:26:43.042Z,67.82
2023-02-21T01:32:03.076Z,67.66
2023-02-21T01:37:23.167Z,68.54
2023-02-21T01:42:45.138Z,68.44
2023-02-21T01:48:06.390Z,69.68
2023-02-21T01:53:41.186Z,69.30
2023-02-21T01:59:00.968Z,68.38
2023-02-21T02:04:20.932Z,68.04
2023-02-21T02:09:41.403Z,67.05
2023-02-21T02:14:57.647Z,67.95
2023-02-21T02:20:38.349Z,67.92
2023-02-21T02:26:07.543Z,68.69
2023-02-21T02:31:11.721Z,69.33
2023-02-21T02:36:22.178Z,70.08
2023-02-21T02:41:43.214Z,69.95
2023-02-21T02:46:44.981Z,69.48
2023-02-21T02:51:46.598Z,69.19
2023-02-21T02:56:48.081Z,68.36
2023-02-21T03:01:49.608Z,68.67
2023-02-21T03:06:58.715Z,69.13
2023-02-21T03:12:10.241Z,68.77
2023-02-21T03:17:12.308Z,67.25
2023-02-21T03:22:15.407Z,66.27
2023-02-21T03:27:17.082Z,65.72
2023-02-21T03:32:30.484Z,65.10
2023-02-21T03:37:35.653Z,64.84
2023-02-21T03:42:37.110Z,65.27
2023-02-21T03:47:38.570Z,64.71
2023-02-21T03:52:40.102Z,64.73
2023-02-21T03:57:41.558Z,65.48
2023-02-21T04:02:43.682Z,63.46
2023-02-21T04:07:45.499Z,64.56
2023-02-21T04:12:46.946Z,64.60
2023-02-21T04:17:48.477Z,64.49
2023-02-21T04:23:02.727Z,63.37
2023-02-21T04:28:04.994Z,63.67
2023-02-21T04:33:06.465Z,64.40
2023-02-21T04:38:07.919Z,64.57
2023-02-21T04:43:09.388Z,64.10
2023-02-21T04:48:10.836Z,63.85
2023-02-21T04:53:12.458Z,63.84
2023-02-21T04:58:13.929Z,64.46
2023-02-21T05:03:15.511Z,63.61
2023-02-21T05:08:16.979Z,62.40
2023-02-21T05:13:18.442Z,63.35
2023-02-21T05:18:22.623Z,64.20
2023-02-21T05:23:34.041Z,63.02
2023-02-21T05:28:35.840Z,62.88
2023-02-21T05:33:37.307Z,62.12
2023-02-21T05:38:49.536Z,63.15
2023-02-21T05:43:51.321Z,64.04
2023-02-21T05:48:53.088Z,63.73
2023-02-21T05:53:54.648Z,63.63
2023-02-21T05:58:56.100Z,64.24
2023-02-21T06:03:57.575Z,65.10
2023-02-21T06:08:59.060Z,64.84
2023-02-21T06:14:03.457Z,64.65
2023-02-21T06:19:05.979Z,64.05
2023-02-21T06:24:07.507Z,65.36
2023-02-21T06:29:09.951Z,63.92
2023-02-21T06:34:11.403Z,64.66
2023-02-21T06:39:12.862Z,65.31
2023-02-21T06:44:14.515Z,64.49
2023-02-21T06:49:16.092Z,64.45
2023-02-21T06:54:17.824Z,65.02
2023-02-21T06:59:19.296Z,65.09
2023-02-21T07:04:20.790Z,63.59
2023-02-21T07:09:22.289Z,64.35
2023-02-21T07:14:23.754Z,62.18
2023-02-21T07:19:25.265Z,62.99
2023-02-21T07:24:26.732Z,60.83
2023-02-21T07:29:28.371Z,62.20
2023-02-21T07:34:29.831Z,62.08
2023-02-21T07:39:31.278Z,62.04
2023-02-21T07:44:33.043Z,61.71
2023-02-21T07:49:38.405Z,61.73
2023-02-21T07:54:40.072Z,62.22
2023-02-21T07:59:41.532Z,62.23
2023-02-21T08:04:43.036Z,62.52
2023-02-21T08:09:44.565Z,61.85
2023-02-21T08:14:46.046Z,61.95
2023-02-21T08:19:47.556Z,61.88
2023-02-21T08:24:49.909Z,61.06
2023-02-21T08:29:51.617Z,61.82
2023-02-21T08:34:53.085Z,61.44
2023-02-21T08:39:54.542Z,60.47
2023-02-21T08:44:57.433Z,60.68
2023-02-21T08:49:58.899Z,60.24
2023-02-21T08:55:00.385Z,61.61
2023-02-21T09:00:01.899Z,61.78
2023-02-21T09:05:03.561Z,62.17
2023-02-21T09:10:05.394Z,61.75
2023-02-21T09:15:07.459Z,61.88
2023-02-21T09:20:09.940Z,63.47
2023-02-21T09:25:13.028Z,63.16
2023-02-21T09:30:15.478Z,63.52
2023-02-21T09:35:17.308Z,62.94
2023-02-21T09:40:40.887Z,61.02
2023-02-21T09:45:44.020Z,62.32
2023-02-21T09:50:48.098Z,61.75
2023-02-21T09:55:50.581Z,61.81
2023-02-21T10:00:52.188Z,61.71
2023-02-21T10:06:08.552Z,61.25
2023-02-21T10:11:26.290Z,59.23
2023-02-21T10:16:44.191Z,60.89
2023-02-21T10:21:47.432Z,60.95
2023-02-21T10:27:13.171Z,60.21
2023-02-21T10:32:14.799Z,60.76
2023-02-21T10:37:41.140Z,59.51
2023-02-21T10:43:01.402Z,59.43
2023-02-21T10:48:07.211Z,58.39
2023-02-21T10:53:08.869Z,59.41
2023-02-21T10:58:17.771Z,59.89
2023-02-21T11:03:19.060Z,59.12
2023-02-21T11:08:40.985Z,58.57
2023-02-21T11:13:42.491Z,57.86
2023-02-21T11:18:44.073Z,59.38
2023-02-21T11:23:48.722Z,59.35
2023-02-21T11:28:50.184Z,58.88
2023-02-21T11:33:59.799Z,57.88
2023-02-21T11:39:27.861Z,58.92
2023-02-21T11:44:34.959Z,60.15
2023-02-21T11:50:01.845Z,59.57
2023-02-21T11:55:04.285Z,59.28
2023-02-21T12:00:28.336Z,59.80
2023-02-21T12:05:57.729Z,58.82
2023-02-21T12:11:14.485Z,58.53
2023-02-21T12:16:57.257Z,58.02
2023-02-21T12:22:13.612Z,57.78
2023-02-21T12:27:33.144Z,57.60
2023-02-21T12:33:03.813Z,57.71
2023-02-21T12:38:08.552Z,57.86
2023-02-21T12:43:28.332Z,57.63
2023-02-21T12:48:50.015Z,57.71
2023-02-21T12:54:01.482Z,57.52
2023-02-21T12:59:20.080Z,58.15
2023-02-21T13:04:34.162Z,58.73
2023-02-21T13:09:39.438Z,58.76
2023-02-21T13:14:45.657Z,57.83
2023-02-21T13:19:50.854Z,57.94
2023-02-21T13:24:59.641Z,57.14
2023-02-21T13:30:12.613Z,58.67
2023-02-21T13:35:19.137Z,58.10
2023-02-21T13:40:24.952Z,57.95
2023-02-21T13:45:26.523Z,58.06
2023-02-21T13:50:35.175Z,55.21
2023-02-21T13:55:38.992Z,57.18
2023-02-21T14:00:40.317Z,57.45
2023-02-21T14:05:44.495Z,57.37
2023-02-21T14:10:48.031Z,56.76
2023-02-21T14:15:51.461Z,57.13
2023-02-21T14:20:54.976Z,57.40
2023-02-21T14:26:01.481Z,57.71
2023-02-21T14:31:02.960Z,57.36
2023-02-21T14:36:06.796Z,57.17
2023-02-21T14:41:50.960Z,57.78
2023-02-21T14:47:08.562Z,57.11
2023-02-21T14:52:28.757Z,57.69
2023-02-21T14:57:35.940Z,58.64
2023-02-21T15:03:00.871Z,57.96
2023-02-21T15:08:06.150Z,58.54
2023-02-21T15:13:19.224Z,58.58
2023-02-21T15:18:31.793Z,58.24
2023-02-21T15:23:33.419Z,58.67
2023-02-21T15:28:34.886Z,57.90
2023-02-21T15:33:43.271Z,58.20
2023-02-21T15:39:05.904Z,58.72
2023-02-21T15:44:08.620Z,59.09
2023-02-21T15:49:15.662Z,58.76
2023-02-21T15:54:16.968Z,58.47
2023-02-21T15:59:20.417Z,57.67
2023-02-21T16:04:22.778Z,57.95
2023-02-21T16:09:27.341Z,58.49
2023-02-21T16:15:07.724Z,58.50
2023-02-21T16:20:14.980Z,56.96
2023-02-21T16:25:19.463Z,56.02
2023-02-21T16:30:23.297Z,56.51
2023-02-21T16:35:25.086Z,58.54
2023-02-21T16:40:33.342Z,57.52
2023-02-21T16:45:34.830Z,59.55
2023-02-21T16:50:37.765Z,59.41
2023-02-21T16:55:39.095Z,59.77
2023-02-21T17:00:40.546Z,60.30
2023-02-21T17:05:42.116Z,60.19
2023-02-21T17:10:43.679Z,60.57
2023-02-21T17:15:45.492Z,60.83
2023-02-21T17:20:46.985Z,60.14
2023-02-21T17:25:48.518Z,60.10
2023-02-21T17:30:49.978Z,59.11
2023-02-21T17:35:53.057Z,58.77
2023-02-21T17:40:54.579Z,58.87
2023-02-21T17:45:56.116Z,58.33
2023-02-21T17:50:57.610Z,57.92
2023-02-21T17:55:59.844Z,58.10
2023-02-21T18:01:01.320Z,57.03
2023-02-21T18:06:02.787Z,57.05
2023-02-21T18:11:04.342Z,57.47
2023-02-21T18:16:05.967Z,57.24
2023-02-21T18:21:07.600Z,56.41
2023-02-21T18:26:09.094Z,56.34
2023-02-21T18:31:11.170Z,55.82
2023-02-21T18:36:12.722Z,55.83
2023-02-21T18:41:16.053Z,56.29
2023-02-21T18:46:19.241Z,56.11
2023-02-21T18:51:20.752Z,55.73
2023-02-21T18:56:22.225Z,56.56
2023-02-21T19:01:26.050Z,56.32
2023-02-21T19:06:27.604Z,56.39
2023-02-21T19:11:29.068Z,55.68
2023-02-21T19:16:30.559Z,56.28
2023-02-21T19:21:32.099Z,56.30
2023-02-21T19:26:33.705Z,55.73
2023-02-21T19:31:35.795Z,54.58
2023-02-21T19:36:38.939Z,55.42
2023-02-21T19:41:40.552Z,56.90
2023-02-21T19:46:42.054Z,57.52
2023-02-21T19:51:49.389Z,56.32
2023-02-21T19:56:50.875Z,55.82
2023-02-21T20:01:52.820Z,56.57
2023-02-21T20:06:56.738Z,57.32
2023-02-21T20:11:59.230Z,56.77
2023-02-21T20:17:00.724Z,56.53
2023-02-21T20:22:02.255Z,56.38
2023-02-21T20:27:03.739Z,56.84
2023-02-21T20:32:06.838Z,56.11
2023-02-21T20:37:10.978Z,56.95
2023-02-21T20:42:12.459Z,56.86
2023-02-21T20:47:14.353Z,56.37
2023-02-21T20:52:16.068Z,56.36
2023-02-21T20:57:17.564Z,55.58
2023-02-21T21:02:19.207Z,56.03
2023-02-21T21:07:22.393Z,55.86
2023-02-21T21:12:23.939Z,55.06
2023-02-21T21:17:25.439Z,55.05
2023-02-21T21:22:29.816Z,55.57
2023-02-21T21:27:32.719Z,55.87
2023-02-21T21:32:34.520Z,56.14
2023-02-21T21:37:36.192Z,55.64
2023-02-21T21:42:37.681Z,55.47
2023-02-21T21:47:39.164Z,54.94
2023-02-21T21:52:40.676Z,55.42
2023-02-21T21:57:42.135Z,55.28
2023-02-21T22:02:47.210Z,56.28
2023-02-21T22:07:49.045Z,56.33
2023-02-21T22:12:51.172Z,56.48
2023-02-21T22:17:52.734Z,56.13
2023-02-21T22:22:57.842Z,56.26
2023-02-21T22:28:00.400Z,58.09
2023-02-21T22:33:01.917Z,57.00
2023-02-21T22:38:04.826Z,57.41
2023-02-21T22:43:06.180Z,58.36
2023-02-21T22:48:07.802Z,58.14
2023-02-21T22:53:11.658Z,58.30
2023-02-21T22:58:13.861Z,58.09
2023-02-21T23:03:15.924Z,57.70
2023-02-21T23:08:19.837Z,57.27
2023-02-21T23:13:24.116Z,58.18
2023-02-21T23:18:26.054Z,57.60
2023-02-21T23:23:28.213Z,57.90
2023-02-21T23:28:30.427Z,58.11
2023-02-21T23:33:33.864Z,57.33
2023-02-21T23:38:38.506Z,57.56
2023-02-21T23:43:41.544Z,57.31
2023-02-21T23:48:44.946Z,56.84
2023-02-21T23:53:46.401Z,57.03
2023-02-21T23:58:49.959Z,56.88
